Time;durP1;ratioP1;P1;durP2;ratioP2;P2;SDS_P1;SDS_P2;PMS_P1;PMS_P2;Temp;Humidity;BMP_temperature;BMP_pressure;BME280_temperature;BME280_humidity;BME280_pressure;Samples;Min_cycle;Max_cycle;Signal;HPM_P1;HPM_P2
2023/06/27 00:01:39;;;;;;;0.10;0.10;;;16.20;99.90;;;;;;5147163;27;20039;-67
2023/06/27 00:04:07;;;;;;;0.00;0.00;;;16.20;99.90;;;;;;5127236;27;20054;-67
2023/06/27 00:06:37;;;;;;;0.10;0.10;;;16.20;99.90;;;;;;5149902;27;20039;-67
2023/06/27 00:09:06;;;;;;;0.00;0.00;;;16.20;99.90;;;;;;5144438;27;20045;-67
2023/06/27 00:11:31;;;;;;;0.00;0.00;;;16.10;99.90;;;;;;5151223;27;20043;-67
2023/06/27 00:13:58;;;;;;;0.25;0.25;;;16.10;99.90;;;;;;5147763;27;20058;-67
2023/06/27 00:16:24;;;;;;;0.17;0.17;;;16.00;99.90;;;;;;5144061;27;20054;-67
2023/06/27 00:18:50;;;;;;;0.00;0.00;;;16.00;99.90;;;;;;5146807;27;20542;-67
2023/06/27 00:21:16;;;;;;;0.13;0.13;;;16.00;99.90;;;;;;5144115;27;20133;-67
2023/06/27 00:23:43;;;;;;;0.00;0.00;;;15.90;99.90;;;;;;5131790;27;20054;-67
2023/06/27 00:26:10;;;;;;;0.00;0.00;;;16.00;99.90;;;;;;5144802;27;20084;-67
2023/06/27 00:28:35;;;;;;;0.08;0.08;;;15.90;99.90;;;;;;5146801;27;20130;-67
2023/06/27 00:31:02;;;;;;;0.52;0.52;;;15.90;99.90;;;;;;5153428;27;20062;-67
2023/06/27 00:33:28;;;;;;;1.75;0.70;;;15.80;99.90;;;;;;5146413;27;20449;-67
2023/06/27 00:35:53;;;;;;;0.10;0.10;;;15.80;99.90;;;;;;5144001;27;20127;-67
2023/06/27 00:38:19;;;;;;;0.00;0.00;;;15.80;99.90;;;;;;5143933;27;20058;-67
2023/06/27 00:40:44;;;;;;;0.00;0.00;;;15.80;99.90;;;;;;5151083;27;20043;-67
2023/06/27 00:43:10;;;;;;;0.00;0.00;;;15.80;99.90;;;;;;5143231;27;20039;-67
2023/06/27 00:45:36;;;;;;;0.20;0.20;;;15.80;99.90;;;;;;5144900;27;20066;-67
2023/06/27 00:48:02;;;;;;;0.00;0.00;;;15.80;99.90;;;;;;5150405;27;20031;-67
2023/06/27 00:50:30;;;;;;;0.00;0.00;;;15.80;99.90;;;;;;5144181;27;20133;-67
2023/06/27 00:52:59;;;;;;;0.00;0.00;;;15.90;99.90;;;;;;5145337;27;20043;-67
2023/06/27 00:55:25;;;;;;;0.08;0.08;;;16.00;99.90;;;;;;5139533;27;20047;-67
2023/06/27 00:57:51;;;;;;;0.00;0.00;;;15.90;99.90;;;;;;5144997;27;20039;-67
2023/06/27 01:00:17;;;;;;;0.08;0.08;;;15.90;99.90;;;;;;5144157;27;20061;-67
2023/06/27 01:02:45;;;;;;;0.00;0.00;;;15.90;99.90;;;;;;5147464;27;20077;-67
2023/06/27 01:05:12;;;;;;;0.00;0.00;;;15.90;99.90;;;;;;5151977;27;20091;-67
2023/06/27 01:07:48;;;;;;;0.65;0.65;;;15.90;99.90;;;;;;5144164;27;20046;-67
2023/06/27 01:10:19;;;;;;;0.47;0.28;;;15.80;99.90;;;;;;5149281;27;20110;-67
2023/06/27 01:12:57;;;;;;;0.17;0.17;;;15.80;99.90;;;;;;5131245;27;20039;-67
2023/06/27 01:15:23;;;;;;;0.35;0.32;;;15.80;99.90;;;;;;5124332;27;20061;-67
2023/06/27 01:17:50;;;;;;;0.10;0.10;;;15.80;99.90;;;;;;5141564;27;20397;-67
2023/06/27 01:20:17;;;;;;;0.00;0.00;;;15.80;99.90;;;;;;5145876;27;20080;-67
2023/06/27 01:22:47;;;;;;;0.30;0.30;;;15.80;99.90;;;;;;5141435;27;20050;-67
2023/06/27 01:25:13;;;;;;;0.20;0.20;;;15.80;99.90;;;;;;5142782;27;20051;-67
2023/06/27 01:27:38;;;;;;;0.00;0.00;;;15.70;99.90;;;;;;5143723;27;20041;-67
2023/06/27 01:30:05;;;;;;;0.00;0.00;;;15.70;99.90;;;;;;5143524;27;20031;-67
2023/06/27 01:32:54;;;;;;;0.00;0.00;;;15.70;99.90;;;;;;5141256;27;20047;-67
2023/06/27 01:35:37;;;;;;;0.00;0.00;;;15.80;99.90;;;;;;5143292;27;20036;-67
2023/06/27 01:38:18;;;;;;;0.08;0.08;;;15.80;99.90;;;;;;5142991;27;20131;-67
2023/06/27 01:40:45;;;;;;;1.05;1.00;;;15.80;99.90;;;;;;5141601;27;20047;-67
2023/06/27 01:43:13;;;;;;;0.00;0.00;;;15.80;99.90;;;;;;5146410;27;20030;-67
2023/06/27 01:45:40;;;;;;;0.03;0.03;;;15.80;99.90;;;;;;5144515;27;20126;-67
2023/06/27 01:48:07;;;;;;;0.00;0.00;;;15.80;99.90;;;;;;5147532;27;20035;-67
2023/06/27 01:50:33;;;;;;;0.10;0.10;;;15.80;99.90;;;;;;5126143;27;20123;-67
2023/06/27 01:52:58;;;;;;;0.10;0.10;;;15.90;99.90;;;;;;5145007;27;20093;-67
2023/06/27 01:55:24;;;;;;;0.15;0.15;;;15.90;99.90;;;;;;5143860;27;20051;-67
2023/06/27 01:57:50;;;;;;;0.10;0.10;;;15.90;99.90;;;;;;5143278;27;20043;-67
2023/06/27 02:00:16;;;;;;;0.00;0.00;;;15.90;99.90;;;;;;5143756;27;20051;-67
2023/06/27 02:02:43;;;;;;;0.05;0.05;;;16.00;99.90;;;;;;5143066;27;20054;-67
2023/06/27 02:05:09;;;;;;;0.20;0.20;;;15.90;99.90;;;;;;5144634;27;20043;-67
2023/06/27 02:07:35;;;;;;;0.00;0.00;;;16.00;99.90;;;;;;5142024;27;20036;-67
2023/06/27 02:10:00;;;;;;;0.10;0.10;;;16.00;99.90;;;;;;5142996;27;20398;-67
2023/06/27 02:12:26;;;;;;;0.00;0.00;;;16.00;99.90;;;;;;5144867;27;20054;-67
2023/06/27 02:14:52;;;;;;;0.00;0.00;;;16.00;99.90;;;;;;5145550;27;20046;-67
2023/06/27 02:17:17;;;;;;;0.00;0.00;;;16.00;99.90;;;;;;5125805;27;20047;-67
2023/06/27 02:19:43;;;;;;;0.63;0.47;;;16.10;99.90;;;;;;5146015;27;20046;-67
2023/06/27 02:22:09;;;;;;;2.97;0.77;;;16.20;99.90;;;;;;5140351;27;20043;-67
2023/06/27 02:24:34;;;;;;;0.25;0.25;;;16.20;99.90;;;;;;5150426;27;20035;-67
2023/06/27 02:27:00;;;;;;;0.20;0.20;;;16.20;99.90;;;;;;5142491;27;20070;-67
2023/06/27 02:29:25;;;;;;;0.00;0.00;;;16.20;99.90;;;;;;5149668;27;20039;-67
2023/06/27 02:31:51;;;;;;;0.00;0.00;;;16.20;99.90;;;;;;5145500;27;20094;-67
2023/06/27 02:34:16;;;;;;;0.00;0.00;;;16.20;99.90;;;;;;5124237;27;20050;-67
2023/06/27 02:36:42;;;;;;;0.00;0.00;;;16.30;99.90;;;;;;5148574;27;20125;-67
2023/06/27 02:39:08;;;;;;;0.00;0.00;;;16.40;99.90;;;;;;5142630;27;20037;-67
2023/06/27 02:41:33;;;;;;;0.00;0.00;;;16.30;99.90;;;;;;5119040;27;20569;-67
2023/06/27 02:43:59;;;;;;;8.57;1.02;;;16.40;99.90;;;;;;5144887;27;20043;-67
2023/06/27 02:46:25;;;;;;;0.30;0.30;;;16.40;99.90;;;;;;5145406;27;20038;-67
2023/06/27 02:48:50;;;;;;;0.00;0.00;;;16.50;99.90;;;;;;5134795;27;20154;-67
2023/06/27 02:51:16;;;;;;;0.82;0.77;;;16.60;99.90;;;;;;5139462;27;20039;-67
2023/06/27 02:53:41;;;;;;;0.00;0.00;;;16.50;99.90;;;;;;5143498;27;20846;-67
2023/06/27 02:56:08;;;;;;;0.00;0.00;;;16.50;99.90;;;;;;5141656;27;20043;-67
2023/06/27 02:58:34;;;;;;;0.00;0.00;;;16.60;99.90;;;;;;5146531;27;20046;-67
2023/06/27 03:01:01;;;;;;;4.53;0.57;;;16.50;99.90;;;;;;5146995;27;20078;-67
2023/06/27 03:03:27;;;;;;;0.32;0.32;;;16.60;99.90;;;;;;5142299;27;20481;-67
2023/06/27 03:05:53;;;;;;;0.00;0.00;;;16.60;99.90;;;;;;5142950;27;20042;-67
2023/06/27 03:08:18;;;;;;;0.40;0.40;;;16.60;99.90;;;;;;5126484;27;20096;-67
2023/06/27 03:10:44;;;;;;;0.00;0.00;;;16.50;99.90;;;;;;5144404;27;20038;-67
2023/06/27 03:13:09;;;;;;;0.00;0.00;;;16.50;99.90;;;;;;5139743;27;20035;-67
2023/06/27 03:15:35;;;;;;;1.65;0.30;;;16.40;99.90;;;;;;5145040;27;20371;-67
2023/06/27 03:18:01;;;;;;;0.00;0.00;;;16.40;99.90;;;;;;5141276;27;20035;-67
2023/06/27 03:20:26;;;;;;;0.10;0.10;;;16.40;99.90;;;;;;5144362;27;20095;-67
2023/06/27 03:22:52;;;;;;;0.05;0.05;;;16.50;99.90;;;;;;5142724;27;20050;-67
2023/06/27 03:25:18;;;;;;;0.00;0.00;;;16.50;99.90;;;;;;5140666;27;20031;-67
2023/06/27 03:27:43;;;;;;;0.70;0.63;;;16.60;99.90;;;;;;5145217;27;20126;-67
2023/06/27 03:30:10;;;;;;;0.00;0.00;;;16.50;99.90;;;;;;5145273;27;20047;-67
2023/06/27 03:32:35;;;;;;;0.00;0.00;;;16.60;99.90;;;;;;5123552;27;20428;-67
2023/06/27 03:35:01;;;;;;;0.28;0.20;;;16.60;99.90;;;;;;5151518;27;20119;-67
2023/06/27 03:37:27;;;;;;;0.20;0.20;;;16.50;99.90;;;;;;5147927;27;20491;-67
2023/06/27 03:39:52;;;;;;;0.00;0.00;;;16.50;99.90;;;;;;5145775;27;20066;-67
2023/06/27 03:42:19;;;;;;;0.00;0.00;;;16.50;99.90;;;;;;5128872;27;20470;-67
2023/06/27 03:44:44;;;;;;;5.53;2.83;;;16.50;99.90;;;;;;5146990;27;20411;-67
2023/06/27 03:47:10;;;;;;;0.10;0.10;;;16.60;99.90;;;;;;5149167;27;20043;-67
2023/06/27 03:49:36;;;;;;;0.00;0.00;;;16.60;99.90;;;;;;5147774;27;20088;-67
2023/06/27 03:52:01;;;;;;;0.50;0.50;;;16.60;99.90;;;;;;5144130;27;20039;-67
2023/06/27 03:54:27;;;;;;;0.00;0.00;;;16.50;99.90;;;;;;5146789;27;20114;-67
2023/06/27 03:56:53;;;;;;;0.10;0.10;;;16.60;99.90;;;;;;5148436;27;20401;-67
2023/06/27 03:59:18;;;;;;;0.00;0.00;;;16.60;99.90;;;;;;5145676;27;20045;-67
2023/06/27 04:01:44;;;;;;;0.00;0.00;;;16.60;99.90;;;;;;5143975;27;20531;-67
2023/06/27 04:04:09;;;;;;;0.30;0.30;;;16.60;99.90;;;;;;5148208;27;20126;-67
2023/06/27 04:06:35;;;;;;;0.00;0.00;;;16.60;99.90;;;;;;5148159;27;20077;-67
2023/06/27 04:09:04;;;;;;;0.00;0.00;;;16.60;99.90;;;;;;5128531;27;20034;-67
2023/06/27 04:11:31;;;;;;;0.00;0.00;;;16.60;99.90;;;;;;5148104;27;20446;-67
2023/06/27 04:13:58;;;;;;;0.00;0.00;;;16.70;99.90;;;;;;5142281;27;20454;-67
2023/06/27 04:16:25;;;;;;;0.00;0.00;;;16.70;99.90;;;;;;5145421;27;20039;-67
2023/06/27 04:18:50;;;;;;;0.03;0.03;;;16.70;99.90;;;;;;5145353;27;20043;-67
2023/06/27 04:21:16;;;;;;;0.00;0.00;;;16.80;99.90;;;;;;5151352;27;20041;-67
2023/06/27 04:23:41;;;;;;;0.00;0.00;;;16.80;99.90;;;;;;5149480;27;20627;-67
2023/06/27 04:26:15;;;;;;;0.00;0.00;;;16.80;99.90;;;;;;5144834;27;20487;-67
2023/06/27 04:28:41;;;;;;;;;;;16.80;99.90;;;;;;5144330;27;20046;-67
2023/06/27 04:31:06;;;;;;;0.05;0.05;;;16.70;99.90;;;;;;5145427;27;19979;-67
2023/06/27 04:33:32;;;;;;;0.00;0.00;;;16.80;99.90;;;;;;5151379;27;20054;-67
2023/06/27 04:36:03;;;;;;;0.20;0.20;;;16.80;99.90;;;;;;5150278;27;20115;-68
2023/06/27 04:38:29;;;;;;;0.00;0.00;;;17.00;99.90;;;;;;5144930;27;20051;-67
2023/06/27 04:40:55;;;;;;;0.00;0.00;;;17.00;99.90;;;;;;5143840;27;20093;-68
2023/06/27 04:43:21;;;;;;;0.00;0.00;;;17.10;99.90;;;;;;5155312;27;20489;-67
2023/06/27 04:45:47;;;;;;;7.22;0.75;;;17.10;99.90;;;;;;5144305;27;20115;-67
2023/06/27 04:48:12;;;;;;;0.00;0.00;;;17.10;99.90;;;;;;5143630;27;20039;-67
2023/06/27 04:50:38;;;;;;;1.30;1.20;;;17.20;99.90;;;;;;5144823;27;20065;-67
2023/06/27 04:53:04;;;;;;;0.60;0.30;;;17.20;99.90;;;;;;5148189;27;20030;-67
2023/06/27 04:55:29;;;;;;;0.00;0.00;;;17.20;99.90;;;;;;5142296;27;20418;-67
2023/06/27 04:57:55;;;;;;;0.22;0.22;;;17.30;99.90;;;;;;5152129;27;20068;-67
2023/06/27 05:00:21;;;;;;;0.00;0.00;;;17.30;99.90;;;;;;5151119;27;20046;-67
2023/06/27 05:02:46;;;;;;;0.00;0.00;;;17.40;99.90;;;;;;5146713;27;20470;-67
2023/06/27 05:05:12;;;;;;;0.00;0.00;;;17.50;99.90;;;;;;5143994;27;20031;-67
2023/06/27 05:07:37;;;;;;;0.00;0.00;;;17.60;99.90;;;;;;5134098;27;20490;-67
2023/06/27 05:10:03;;;;;;;0.10;0.10;;;17.60;99.90;;;;;;5124821;27;20050;-67
2023/06/27 05:12:29;;;;;;;0.00;0.00;;;17.70;99.90;;;;;;5144510;27;20026;-68
2023/06/27 05:14:54;;;;;;;0.10;0.10;;;17.70;99.90;;;;;;5144952;27;20051;-68
2023/06/27 05:17:20;;;;;;;0.05;0.05;;;17.80;99.90;;;;;;5146039;27;20097;-67
2023/06/27 05:19:45;;;;;;;0.00;0.00;;;17.80;99.90;;;;;;5146915;27;20051;-67
2023/06/27 05:22:12;;;;;;;0.00;0.00;;;17.90;99.90;;;;;;5131085;27;20499;-68
2023/06/27 05:24:37;;;;;;;0.00;0.00;;;17.90;99.90;;;;;;5144818;27;20118;-67
2023/06/27 05:27:03;;;;;;;0.00;0.00;;;18.00;99.90;;;;;;5143467;27;20114;-67
2023/06/27 05:29:29;;;;;;;0.22;0.22;;;18.00;99.90;;;;;;5149385;27;20054;-67
2023/06/27 05:31:54;;;;;;;0.00;0.00;;;18.00;99.90;;;;;;5139649;27;20553;-67
2023/06/27 05:34:20;;;;;;;0.05;0.05;;;18.10;99.90;;;;;;5144620;27;20053;-67
2023/06/27 05:36:46;;;;;;;0.00;0.00;;;18.10;99.90;;;;;;5142258;27;20038;-67
2023/06/27 05:39:11;;;;;;;0.00;0.00;;;18.20;99.90;;;;;;5145543;27;20154;-68
2023/06/27 05:41:37;;;;;;;0.10;0.10;;;18.30;99.90;;;;;;5144798;27;20070;-68
2023/06/27 05:44:03;;;;;;;0.63;0.63;;;18.30;99.90;;;;;;5141699;27;20694;-68
2023/06/27 05:46:28;;;;;;;0.00;0.00;;;18.30;99.90;;;;;;5147596;27;20129;-68
2023/06/27 05:48:54;;;;;;;0.25;0.25;;;18.30;99.90;;;;;;5143424;27;20039;-68
2023/06/27 05:51:22;;;;;;;0.00;0.00;;;18.40;99.90;;;;;;5142717;27;20485;-67
2023/06/27 05:53:47;;;;;;;0.20;0.20;;;18.40;99.90;;;;;;5149539;27;20439;-68
2023/06/27 05:56:13;;;;;;;0.10;0.10;;;18.50;99.90;;;;;;5141172;27;20082;-68
2023/06/27 05:58:38;;;;;;;0.00;0.00;;;18.50;99.90;;;;;;5146003;27;20083;-68
2023/06/27 06:01:04;;;;;;;0.00;0.00;;;18.60;99.90;;;;;;5142488;27;20038;-67
2023/06/27 06:03:32;;;;;;;0.00;0.00;;;18.60;99.90;;;;;;5146863;27;20046;-67
2023/06/27 06:05:57;;;;;;;0.00;0.00;;;18.70;99.90;;;;;;5144233;27;20042;-68
2023/06/27 06:08:23;;;;;;;0.00;0.00;;;18.80;99.90;;;;;;5144064;27;22435;-68
2023/06/27 06:10:50;;;;;;;0.00;0.00;;;18.90;99.90;;;;;;5142423;27;20038;-68
2023/06/27 06:13:16;;;;;;;0.10;0.10;;;19.00;99.90;;;;;;5147025;27;20038;-68
2023/06/27 06:15:41;;;;;;;0.00;0.00;;;19.00;99.90;;;;;;5143528;27;20080;-68
2023/06/27 06:18:07;;;;;;;0.00;0.00;;;19.10;99.90;;;;;;5146139;27;20508;-68
2023/06/27 06:20:33;;;;;;;0.10;0.10;;;19.30;99.90;;;;;;5145577;27;20076;-68
2023/06/27 06:22:59;;;;;;;0.00;0.00;;;19.40;99.90;;;;;;5145843;27;20115;-68
2023/06/27 06:25:29;;;;;;;0.00;0.00;;;19.50;99.90;;;;;;5142956;27;20050;-69
2023/06/27 06:27:54;;;;;;;0.00;0.00;;;19.50;99.90;;;;;;5146163;27;20031;-68
2023/06/27 06:30:20;;;;;;;0.05;0.05;;;19.60;99.90;;;;;;5140764;27;20351;-68
2023/06/27 06:32:46;;;;;;;0.10;0.10;;;19.70;99.90;;;;;;5127579;27;20049;-68
2023/06/27 06:35:11;;;;;;;0.00;0.00;;;19.70;99.90;;;;;;5139841;27;20038;-68
2023/06/27 06:37:37;;;;;;;6.13;1.85;;;19.70;99.90;;;;;;5148539;27;20031;-68
2023/06/27 06:40:03;;;;;;;0.10;0.10;;;19.80;99.90;;;;;;5140015;27;20040;-69
2023/06/27 06:42:29;;;;;;;0.00;0.00;;;19.80;99.90;;;;;;5141224;27;20771;-69
2023/06/27 06:44:54;;;;;;;0.00;0.00;;;19.90;99.90;;;;;;5151090;27;20038;-69
2023/06/27 06:47:20;;;;;;;0.00;0.00;;;19.90;99.90;;;;;;5145332;27;20050;-68
2023/06/27 06:49:45;;;;;;;0.00;0.00;;;20.00;99.90;;;;;;5143030;27;20071;-68
2023/06/27 06:52:11;;;;;;;0.00;0.00;;;20.00;99.90;;;;;;5139777;27;20043;-68
2023/06/27 06:54:38;;;;;;;0.00;0.00;;;20.00;99.90;;;;;;5139467;27;20134;-68
2023/06/27 06:57:05;;;;;;;3.85;0.45;;;20.00;99.90;;;;;;5141550;27;20054;-69
2023/06/27 06:59:31;;;;;;;0.30;0.30;;;20.00;99.90;;;;;;5127336;27;20085;-68
2023/06/27 07:01:56;;;;;;;0.00;0.00;;;20.10;99.90;;;;;;5129286;27;20078;-68
2023/06/27 07:04:22;;;;;;;0.17;0.17;;;20.10;99.90;;;;;;5140860;27;20474;-68
2023/06/27 07:06:48;;;;;;;0.00;0.00;;;20.00;99.90;;;;;;5143537;27;20061;-68
2023/06/27 07:09:14;;;;;;;0.00;0.00;;;20.10;99.90;;;;;;5122465;27;20043;-68
2023/06/27 07:11:40;;;;;;;0.00;0.00;;;20.10;99.90;;;;;;5145144;27;20481;-69
2023/06/27 07:14:05;;;;;;;0.00;0.00;;;20.20;99.90;;;;;;5143193;27;20035;-68
2023/06/27 07:16:31;;;;;;;0.45;0.17;;;20.20;99.90;;;;;;5139111;27;20049;-68
2023/06/27 07:18:57;;;;;;;0.00;0.00;;;20.20;99.90;;;;;;5143871;27;20042;-68
2023/06/27 07:21:22;;;;;;;0.00;0.00;;;20.20;99.90;;;;;;5141502;27;20126;-68
2023/06/27 07:23:48;;;;;;;0.00;0.00;;;20.10;99.90;;;;;;5138417;27;20027;-68
2023/06/27 07:26:14;;;;;;;0.00;0.00;;;20.10;99.90;;;;;;5141906;27;20471;-68
2023/06/27 07:28:39;;;;;;;0.00;0.00;;;20.00;99.90;;;;;;5142131;27;20038;-68
2023/06/27 07:31:05;;;;;;;0.00;0.00;;;20.10;99.90;;;;;;5142106;27;20039;-68
2023/06/27 07:33:30;;;;;;;0.00;0.00;;;20.10;99.90;;;;;;5143259;27;20047;-68
2023/06/27 07:35:56;;;;;;;0.00;0.00;;;20.20;99.90;;;;;;5138833;27;20126;-68
2023/06/27 07:38:22;;;;;;;0.00;0.00;;;20.30;99.90;;;;;;5128356;27;20390;-69
2023/06/27 07:40:48;;;;;;;0.20;0.20;;;20.30;99.90;;;;;;5140852;27;20120;-69
2023/06/27 07:43:13;;;;;;;0.15;0.15;;;20.30;99.90;;;;;;5142321;27;20053;-69
2023/06/27 07:45:39;;;;;;;0.00;0.00;;;20.30;99.90;;;;;;5142620;27;20047;-69
2023/06/27 07:48:05;;;;;;;0.28;0.28;;;20.40;99.90;;;;;;5144586;27;20045;-69
2023/06/27 07:50:31;;;;;;;0.13;0.08;;;20.30;99.90;;;;;;5144719;27;20428;-68
2023/06/27 07:52:56;;;;;;;0.55;0.50;;;20.30;99.90;;;;;;5140350;27;20038;-69
2023/06/27 07:55:22;;;;;;;0.00;0.00;;;20.30;99.90;;;;;;5137815;27;20047;-69
2023/06/27 07:57:47;;;;;;;0.00;0.00;;;20.40;99.90;;;;;;5148072;27;20385;-69
2023/06/27 08:00:13;;;;;;;0.20;0.20;;;20.40;99.90;;;;;;5141671;27;20161;-69
2023/06/27 08:02:39;;;;;;;0.40;0.40;;;20.50;99.90;;;;;;5141181;27;20077;-69
2023/06/27 08:05:06;;;;;;;0.85;0.52;;;20.50;99.90;;;;;;5142762;27;20158;-69
2023/06/27 08:07:32;;;;;;;1.02;0.38;;;20.50;99.90;;;;;;5140718;27;20125;-69
2023/06/27 08:09:57;;;;;;;0.00;0.00;;;20.50;99.90;;;;;;5148085;27;20043;-69
2023/06/27 08:12:23;;;;;;;0.52;0.38;;;20.60;99.90;;;;;;5140441;27;20103;-69
2023/06/27 08:14:49;;;;;;;1.95;0.40;;;20.70;99.90;;;;;;5142267;27;20046;-69
2023/06/27 08:17:15;;;;;;;0.00;0.00;;;20.70;99.90;;;;;;5143603;27;20110;-69
2023/06/27 08:19:41;;;;;;;0.32;0.20;;;20.80;99.90;;;;;;5144832;27;20164;-69
2023/06/27 08:22:06;;;;;;;0.22;0.22;;;20.90;99.90;;;;;;5147658;27;20039;-69
2023/06/27 08:24:32;;;;;;;0.00;0.00;;;21.00;99.90;;;;;;5144895;27;20054;-69
2023/06/27 08:26:58;;;;;;;0.00;0.00;;;21.10;99.90;;;;;;5142471;27;20035;-69
2023/06/27 08:29:26;;;;;;;4.97;1.55;;;21.10;99.90;;;;;;5146252;27;20039;-69
2023/06/27 08:31:58;;;;;;;0.00;0.00;;;21.00;99.90;;;;;;5145692;27;20050;-69
2023/06/27 08:34:23;;;;;;;0.00;0.00;;;20.90;99.90;;;;;;5145323;27;20050;-69
2023/06/27 08:36:49;;;;;;;0.52;0.52;;;20.80;99.90;;;;;;5144626;27;20418;-69
2023/06/27 08:39:14;;;;;;;0.00;0.00;;;20.80;99.90;;;;;;5144213;27;20576;-69
2023/06/27 08:41:41;;;;;;;0.00;0.00;;;20.80;99.90;;;;;;5145596;27;20050;-69
2023/06/27 08:44:06;;;;;;;0.00;0.00;;;20.80;99.90;;;;;;5143834;27;20039;-69
2023/06/27 08:46:32;;;;;;;0.00;0.00;;;20.90;99.90;;;;;;5149838;27;20122;-69
2023/06/27 08:49:03;;;;;;;1.17;0.38;;;20.90;99.90;;;;;;5144869;27;20073;-69
2023/06/27 08:51:30;;;;;;;0.03;0.03;;;20.90;99.90;;;;;;5145532;27;20544;-69
2023/06/27 08:54:04;;;;;;;0.00;0.00;;;20.90;99.90;;;;;;5146984;27;20046;-69
2023/06/27 08:56:31;;;;;;;0.73;0.73;;;20.90;99.90;;;;;;5146130;27;20042;-69
2023/06/27 08:59:03;;;;;;;0.00;0.00;;;20.90;99.90;;;;;;5145618;27;20099;-69
2023/06/27 09:01:33;;;;;;;0.00;0.00;;;20.80;99.90;;;;;;5148518;27;20035;-69
2023/06/27 09:04:02;;;;;;;0.00;0.00;;;20.90;99.90;;;;;;5145169;27;20039;-69
2023/06/27 09:06:28;;;;;;;0.95;0.75;;;20.90;99.90;;;;;;5149808;27;20084;-69
2023/06/27 09:08:54;;;;;;;0.00;0.00;;;20.90;99.90;;;;;;5145615;27;20047;-69
2023/06/27 09:11:20;;;;;;;0.00;0.00;;;20.90;99.90;;;;;;5145878;27;20055;-68
2023/06/27 09:13:47;;;;;;;0.00;0.00;;;21.00;99.90;;;;;;5146468;27;20043;-69
2023/06/27 09:16:13;;;;;;;0.00;0.00;;;21.10;99.90;;;;;;5123895;27;20046;-69
2023/06/27 09:18:39;;;;;;;0.00;0.00;;;21.10;99.90;;;;;;5143646;27;20117;-70
2023/06/27 09:21:05;;;;;;;4.95;0.20;;;21.10;99.90;;;;;;5146398;27;20039;-70
2023/06/27 09:23:32;;;;;;;0.15;0.13;;;21.10;99.90;;;;;;5123554;27;20043;-69
2023/06/27 09:26:13;;;;;;;0.00;0.00;;;21.10;99.90;;;;;;5148399;27;20167;-69
2023/06/27 09:28:50;;;;;;;0.00;0.00;;;21.10;99.90;;;;;;5124160;27;20129;-69
2023/06/27 09:31:21;;;;;;;0.00;0.00;;;21.20;99.90;;;;;;5148425;27;20085;-69
2023/06/27 09:33:48;;;;;;;0.00;0.00;;;21.20;99.90;;;;;;5143542;27;20051;-69
2023/06/27 09:36:36;;;;;;;0.00;0.00;;;21.20;99.90;;;;;;5129259;27;20042;-70
2023/06/27 09:39:07;;;;;;;0.00;0.00;;;21.30;99.90;;;;;;5142114;27;20113;-70
2023/06/27 09:41:41;;;;;;;0.00;0.00;;;21.30;99.90;;;;;;5126081;27;20057;-69
2023/06/27 09:44:10;;;;;;;0.00;0.00;;;21.40;99.90;;;;;;5140398;27;20118;-69
2023/06/27 09:46:36;;;;;;;0.00;0.00;;;21.50;99.90;;;;;;5144404;27;20051;-69
2023/06/27 09:49:05;;;;;;;0.28;0.20;;;21.70;99.90;;;;;;5144039;27;20031;-70
2023/06/27 09:51:32;;;;;;;0.80;0.43;;;21.90;99.90;;;;;;5142808;27;20046;-70
2023/06/27 09:53:58;;;;;;;0.00;0.00;;;22.10;99.90;;;;;;5142984;27;20051;-69
2023/06/27 09:56:31;;;;;;;0.00;0.00;;;22.20;99.90;;;;;;5138741;27;20170;-69
2023/06/27 09:59:12;;;;;;;1.58;0.52;;;22.20;99.90;;;;;;5151223;27;20481;-70
2023/06/27 10:01:39;;;;;;;0.00;0.00;;;22.30;99.90;;;;;;5142279;27;20553;-69
2023/06/27 10:04:06;;;;;;;0.00;0.00;;;22.50;99.90;;;;;;5143662;27;20046;-68
2023/06/27 10:06:33;;;;;;;0.00;0.00;;;22.60;99.90;;;;;;5141881;27;20043;-69
2023/06/27 10:08:59;;;;;;;0.00;0.00;;;22.80;99.90;;;;;;5143524;27;20039;-69
2023/06/27 10:11:25;;;;;;;0.00;0.00;;;23.10;99.90;;;;;;5147326;27;20078;-69
2023/06/27 10:13:52;;;;;;;0.00;0.00;;;23.10;99.90;;;;;;5149391;27;20034;-69
2023/06/27 10:16:18;;;;;;;1.48;0.47;;;22.90;99.90;;;;;;5144469;27;20038;-69
2023/06/27 10:18:44;;;;;;;0.17;0.17;;;22.70;99.90;;;;;;5145204;27;20027;-70
2023/06/27 10:21:10;;;;;;;0.20;0.20;;;22.60;99.90;;;;;;5136590;27;20043;-69
2023/06/27 10:23:41;;;;;;;0.00;0.00;;;22.50;99.90;;;;;;5139034;27;20054;-70
2023/06/27 10:26:09;;;;;;;0.00;0.00;;;22.70;99.90;;;;;;5143902;27;20066;-69
2023/06/27 10:28:34;;;;;;;0.00;0.00;;;22.90;99.90;;;;;;5127561;27;20103;-70
2023/06/27 10:31:02;;;;;;;0.00;0.00;;;23.00;99.90;;;;;;5145428;27;20084;-69
2023/06/27 10:33:28;;;;;;;0.43;0.43;;;23.10;99.90;;;;;;5138654;27;20051;-69
2023/06/27 10:36:07;;;;;;;0.00;0.00;;;23.30;99.50;;;;;;5144295;27;20069;-69
2023/06/27 10:38:38;;;;;;;0.00;0.00;;;23.50;98.90;;;;;;5143123;27;20077;-69
2023/06/27 10:41:06;;;;;;;0.05;0.05;;;23.50;99.90;;;;;;5141646;27;20111;-69
2023/06/27 10:43:51;;;;;;;0.00;0.00;;;23.20;99.60;;;;;;5141266;27;20050;-69
2023/06/27 10:46:17;;;;;;;0.00;0.00;;;23.50;99.30;;;;;;5145654;27;20054;-69
2023/06/27 10:49:01;;;;;;;1.10;0.47;;;23.50;99.30;;;;;;5142379;27;20398;-69
2023/06/27 10:51:41;;;;;;;0.20;0.20;;;23.70;98.50;;;;;;5142086;27;20043;-69
2023/06/27 10:54:07;;;;;;;0.00;0.00;;;23.80;98.50;;;;;;5141262;27;20110;-69
2023/06/27 10:56:37;;;;;;;0.22;0.10;;;23.50;98.80;;;;;;5143945;27;20130;-69
2023/06/27 10:59:04;;;;;;;0.00;0.00;;;23.60;98.80;;;;;;5140165;27;20039;-68
2023/06/27 11:01:31;;;;;;;0.70;0.70;;;23.40;99.80;;;;;;5151942;27;20078;-69
2023/06/27 11:03:57;;;;;;;1.33;0.75;;;23.50;98.90;;;;;;5143367;27;20393;-69
2023/06/27 11:06:39;;;;;;;0.00;0.00;;;23.50;98.40;;;;;;5142102;27;20039;-69
2023/06/27 11:09:05;;;;;;;0.00;0.00;;;23.30;98.90;;;;;;5131176;27;20050;-69
2023/06/27 11:11:31;;;;;;;0.00;0.00;;;23.30;99.10;;;;;;5144952;27;20087;-70
2023/06/27 11:14:08;;;;;;;0.08;0.08;;;23.30;99.60;;;;;;5142227;27;20035;-70
2023/06/27 11:16:34;;;;;;;1.35;0.22;;;23.40;98.40;;;;;;5142432;27;20039;-69
2023/06/27 11:19:03;;;;;;;0.00;0.00;;;23.30;99.10;;;;;;5136476;27;20043;-70
2023/06/27 11:21:32;;;;;;;0.00;0.00;;;23.60;98.00;;;;;;5142954;27;20490;-70
2023/06/27 11:23:58;;;;;;;0.00;0.00;;;23.60;98.40;;;;;;5118007;27;20035;-69
2023/06/27 11:26:25;;;;;;;0.60;0.47;;;23.50;97.80;;;;;;5143938;27;20050;-69
2023/06/27 11:28:51;;;;;;;0.00;0.00;;;23.60;98.30;;;;;;5143723;27;20077;-69
2023/06/27 11:31:17;;;;;;;0.00;0.00;;;23.70;96.90;;;;;;5137920;27;20485;-69
2023/06/27 11:33:43;;;;;;;0.00;0.00;;;23.80;96.60;;;;;;5146267;27;20755;-70
2023/06/27 11:36:09;;;;;;;0.00;0.00;;;23.90;97.50;;;;;;5140910;27;20039;-70
2023/06/27 11:38:35;;;;;;;0.00;0.00;;;24.10;95.90;;;;;;5145997;27;20397;-70
2023/06/27 11:41:01;;;;;;;0.05;0.05;;;24.30;96.80;;;;;;5143729;27;20035;-69
2023/06/27 11:43:27;;;;;;;0.00;0.00;;;24.30;96.00;;;;;;5141675;27;20355;-70
2023/06/27 11:45:57;;;;;;;0.20;0.20;;;24.10;95.20;;;;;;5149465;27;20026;-69
2023/06/27 11:48:23;;;;;;;0.00;0.00;;;24.30;95.70;;;;;;5144906;27;20043;-70
2023/06/27 11:51:06;;;;;;;0.00;0.00;;;24.50;96.60;;;;;;5120591;27;20064;-69
2023/06/27 11:53:34;;;;;;;0.00;0.00;;;24.40;96.30;;;;;;5147072;27;20389;-69
2023/06/27 11:56:00;;;;;;;0.00;0.00;;;24.40;96.00;;;;;;5141959;27;20048;-69
2023/06/27 11:58:29;;;;;;;1.08;0.52;;;24.40;95.70;;;;;;5154559;27;20055;-69
2023/06/27 12:00:56;;;;;;;0.00;0.00;;;24.40;96.10;;;;;;5140020;27;20055;-69
2023/06/27 12:03:29;;;;;;;3.30;0.55;;;24.30;96.60;;;;;;5148954;27;20042;-69
2023/06/27 12:05:57;;;;;;;0.00;0.00;;;23.80;96.90;;;;;;5146354;27;20034;-69
2023/06/27 12:08:29;;;;;;;0.00;0.00;;;23.80;96.90;;;;;;5142217;27;20045;-69
2023/06/27 12:10:57;;;;;;;0.20;0.20;;;24.10;97.90;;;;;;5147901;27;20069;-69
2023/06/27 12:13:34;;;;;;;0.00;0.00;;;24.40;98.10;;;;;;5125401;27;20386;-69
2023/06/27 12:15:59;;;;;;;0.00;0.00;;;24.30;97.40;;;;;;5145256;27;20074;-69
2023/06/27 12:18:30;;;;;;;0.10;0.10;;;24.00;97.80;;;;;;5145948;27;20066;-69
2023/06/27 12:20:57;;;;;;;0.22;0.22;;;23.80;96.30;;;;;;5126378;27;20039;-69
2023/06/27 12:23:23;;;;;;;0.00;0.00;;;23.80;96.90;;;;;;5143209;27;20045;-69
2023/06/27 12:25:49;;;;;;;0.10;0.10;;;23.70;97.40;;;;;;5125443;27;20043;-69
2023/06/27 12:28:15;;;;;;;0.00;0.00;;;23.90;97.60;;;;;;5127396;27;20367;-69
2023/06/27 12:30:41;;;;;;;0.00;0.00;;;24.00;97.80;;;;;;5145990;27;20043;-69
2023/06/27 12:33:07;;;;;;;0.38;0.15;;;23.70;96.60;;;;;;5145027;27;20108;-69
2023/06/27 12:35:33;;;;;;;0.00;0.00;;;23.80;97.30;;;;;;5146971;27;20478;-70
2023/06/27 12:37:58;;;;;;;0.00;0.00;;;23.70;97.10;;;;;;5148044;27;20086;-69
2023/06/27 12:40:25;;;;;;;0.00;0.00;;;23.80;97.10;;;;;;5145002;27;20382;-70
2023/06/27 12:42:54;;;;;;;0.00;0.00;;;23.70;96.50;;;;;;5146492;27;20051;-69
2023/06/27 12:45:21;;;;;;;0.00;0.00;;;23.70;97.40;;;;;;5144419;27;20072;-70
2023/06/27 12:47:47;;;;;;;0.00;0.00;;;23.50;98.00;;;;;;5149649;27;20071;-69